createdAt,value
2023-04-19T00:01:15.139Z,102314.50
2023-04-19T00:04:05.319Z,102327.69
2023-04-19T00:06:52.964Z,102332.91
2023-04-19T00:09:39.702Z,102324.97
2023-04-19T00:12:26.421Z,102233.38
2023-04-19T00:15:13.227Z,102316.25
2023-04-19T00:17:59.970Z,102316.16
2023-04-19T00:20:48.827Z,102314.47
2023-04-19T00:23:35.810Z,102313.53
2023-04-19T00:26:22.372Z,102305.63
2023-04-19T00:29:12.228Z,102309.09
2023-04-19T00:31:58.738Z,102304.69
2023-04-19T00:34:45.741Z,102306.44
2023-04-19T00:37:33.791Z,102303.75
2023-04-19T00:40:21.105Z,102302.94
2023-04-19T00:43:07.972Z,102309.03
2023-04-19T00:45:55.043Z,102311.53
2023-04-19T00:48:41.570Z,102306.28
2023-04-19T00:51:28.686Z,102312.53
2023-04-19T00:54:17.429Z,102310.72
2023-04-19T00:57:04.152Z,102293.09
2023-04-19T00:59:51.608Z,102301.03
2023-04-19T01:02:38.616Z,102305.38
2023-04-19T01:05:25.214Z,102299.22
2023-04-19T01:08:12.145Z,102300.09
2023-04-19T01:11:00.358Z,102295.69
2023-04-19T01:13:47.119Z,102293.78
2023-04-19T01:16:33.931Z,102288.59
2023-04-19T01:19:21.414Z,102291.19
2023-04-19T01:22:07.881Z,102300.00
2023-04-19T01:24:57.604Z,102298.16
2023-04-19T01:27:44.502Z,102291.13
2023-04-19T01:30:31.398Z,102286.63
2023-04-19T01:33:18.108Z,102291.13
2023-04-19T01:36:05.321Z,102280.53
2023-04-19T01:38:52.114Z,102277.00
2023-04-19T01:41:40.292Z,102277.84
2023-04-19T01:44:27.165Z,102277.78
2023-04-19T01:47:13.967Z,102276.91
2023-04-19T01:50:00.832Z,102267.19
2023-04-19T01:52:47.291Z,102266.31
2023-04-19T01:55:34.204Z,102260.19
2023-04-19T01:58:22.498Z,102271.50
2023-04-19T02:01:12.695Z,102254.88
2023-04-19T02:03:59.590Z,102241.75
2023-04-19T02:06:46.323Z,102246.97
2023-04-19T02:09:35.818Z,102250.53
2023-04-19T02:12:23.533Z,102246.97
2023-04-19T02:15:12.127Z,102244.38
2023-04-19T02:18:00.321Z,102241.69
2023-04-19T02:20:47.079Z,102234.69
2023-04-19T02:23:33.906Z,102231.22
2023-04-19T02:26:20.821Z,102235.59
2023-04-19T02:29:08.079Z,102234.72
2023-04-19T02:31:56.082Z,102230.25
2023-04-19T02:34:42.850Z,102230.16
2023-04-19T02:37:29.692Z,102216.88
2023-04-19T02:40:17.186Z,102216.84
2023-04-19T02:43:05.082Z,102219.59
2023-04-19T02:45:52.349Z,102212.63
2023-04-19T02:48:42.307Z,102209.88
2023-04-19T02:51:29.600Z,102215.22
2023-04-19T02:54:17.013Z,102213.31
2023-04-19T02:57:05.174Z,102208.06
2023-04-19T02:59:51.858Z,102196.53
2023-04-19T03:02:39.579Z,102201.69
2023-04-19T03:05:28.572Z,102204.28
2023-04-19T03:08:15.293Z,102191.09
2023-04-19T03:11:04.122Z,102192.00
2023-04-19T03:13:50.882Z,102188.53
2023-04-19T03:16:38.088Z,102184.97
2023-04-19T03:19:25.070Z,102178.78
2023-04-19T03:22:13.644Z,102172.63
2023-04-19T03:25:00.369Z,102174.38
2023-04-19T03:27:48.166Z,102176.28
2023-04-19T03:30:37.940Z,102171.81
2023-04-19T03:33:24.791Z,102169.25
2023-04-19T03:36:11.970Z,102174.41
2023-04-19T03:39:03.975Z,102156.88
2023-04-19T03:41:50.972Z,102173.31
2023-04-19T03:44:56.462Z,102155.75
2023-04-19T03:47:44.330Z,102161.28
2023-04-19T03:50:30.973Z,102158.59
2023-04-19T03:53:18.983Z,102162.09
2023-04-19T03:56:07.250Z,102156.84
2023-04-19T03:58:54.310Z,102158.69
2023-04-19T04:01:42.436Z,102149.00
2023-04-19T04:04:29.848Z,102144.56
2023-04-19T04:07:16.892Z,102137.53
2023-04-19T04:10:03.692Z,102134.84
2023-04-19T04:12:56.299Z,102140.16
2023-04-19T04:15:55.792Z,102132.31
2023-04-19T04:18:42.789Z,102138.47
2023-04-19T04:21:36.805Z,102139.34
2023-04-19T04:24:26.740Z,102139.41
2023-04-19T04:27:26.276Z,102137.72
2023-04-19T04:30:17.426Z,102134.28
2023-04-19T04:33:04.317Z,102131.75
2023-04-19T04:35:55.931Z,102122.38
2023-04-19T04:38:46.067Z,102128.72
2023-04-19T04:41:32.516Z,102125.25
2023-04-19T04:44:21.041Z,102120.84
2023-04-19T04:47:09.123Z,102108.41
2023-04-19T04:50:04.691Z,102124.34
2023-04-19T04:52:53.867Z,102112.94
2023-04-19T04:55:49.206Z,102123.50
2023-04-19T04:58:36.035Z,102118.13
2023-04-19T05:01:26.416Z,102113.66
2023-04-19T05:04:14.708Z,102111.94
2023-04-19T05:07:04.301Z,102115.19
2023-04-19T05:09:52.297Z,102115.47
2023-04-19T05:12:44.161Z,102104.66
2023-04-19T05:15:33.281Z,102095.44
2023-04-19T05:18:21.739Z,102094.84
2023-04-19T05:21:12.374Z,102099.66
2023-04-19T05:24:00.935Z,102093.31
2023-04-19T05:26:47.765Z,102091.13
2023-04-19T05:29:34.990Z,102092.91
2023-04-19T05:32:21.792Z,102088.66
2023-04-19T05:35:13.870Z,102079.97
2023-04-19T05:38:01.865Z,102072.63
2023-04-19T05:40:48.697Z,102071.75
2023-04-19T05:43:35.491Z,102066.84
2023-04-19T05:46:23.171Z,102065.84
2023-04-19T05:49:09.806Z,102076.47
2023-04-19T05:52:15.038Z,102075.06
2023-04-19T05:55:11.106Z,102076.84
2023-04-19T05:58:03.353Z,102079.00
2023-04-19T06:00:51.742Z,102075.50
2023-04-19T06:03:41.545Z,102070.22
2023-04-19T06:06:28.588Z,102058.84
2023-04-19T06:09:15.355Z,102072.03
2023-04-19T06:12:03.573Z,102063.09
2023-04-19T06:14:50.277Z,102060.41
2023-04-19T06:17:37.046Z,102067.25
2023-04-19T06:20:23.782Z,102060.31
2023-04-19T06:23:12.878Z,102062.22
2023-04-19T06:25:59.346Z,102063.75
2023-04-19T06:28:47.551Z,102059.66
2023-04-19T06:31:34.737Z,102057.50
2023-04-19T06:34:21.257Z,102052.38
2023-04-19T06:37:08.105Z,102047.03
2023-04-19T06:39:54.851Z,102049.06
2023-04-19T06:42:41.666Z,102053.03
2023-04-19T06:45:30.127Z,102050.63
2023-04-19T06:48:16.477Z,102041.25
2023-04-19T06:51:03.398Z,102043.47
2023-04-19T06:53:50.915Z,102018.16
2023-04-19T06:56:42.127Z,102027.78
2023-04-19T06:59:31.715Z,102034.56
2023-04-19T07:02:19.564Z,102028.91
2023-04-19T07:05:07.982Z,102024.06
2023-04-19T07:07:54.462Z,102014.50
2023-04-19T07:10:43.224Z,102010.59
2023-04-19T07:13:30.072Z,102002.59
2023-04-19T07:16:16.785Z,101994.56
2023-04-19T07:19:04.759Z,101990.28
2023-04-19T07:21:53.026Z,102004.00
2023-04-19T07:24:41.859Z,101998.41
2023-04-19T07:27:28.677Z,101986.63
2023-04-19T07:30:15.415Z,102000.53
2023-04-19T07:33:04.494Z,102002.16
2023-04-19T07:35:52.609Z,101995.75
2023-04-19T07:38:39.161Z,101989.75
2023-04-19T07:41:25.951Z,101980.72
2023-04-19T07:44:13.766Z,101994.72
2023-04-19T07:47:00.928Z,101976.84
2023-04-19T07:49:47.612Z,101969.66
2023-04-19T07:52:35.830Z,101967.56
2023-04-19T07:55:22.385Z,101970.75
2023-04-19T07:58:09.181Z,101965.81
2023-04-19T08:00:56.011Z,101968.59
2023-04-19T08:03:43.229Z,101972.94
2023-04-19T08:06:30.899Z,101958.03
2023-04-19T08:09:18.671Z,101975.78
2023-04-19T08:12:05.636Z,101971.66
2023-04-19T08:15:02.520Z,101970.97
2023-04-19T08:17:54.337Z,101963.59
2023-04-19T08:20:42.681Z,101974.72
2023-04-19T08:23:34.965Z,101965.78
2023-04-19T08:26:33.217Z,101963.22
2023-04-19T08:29:20.342Z,101966.59
2023-04-19T08:32:07.407Z,101967.03
2023-04-19T08:34:54.050Z,101960.69
2023-04-19T08:37:40.848Z,101938.78
2023-04-19T08:40:27.740Z,101936.25
2023-04-19T08:43:18.206Z,101924.91
2023-04-19T08:46:05.799Z,101928.66
2023-04-19T08:48:53.230Z,101914.97
2023-04-19T08:51:41.657Z,101924.19
2023-04-19T08:54:30.368Z,101921.03
2023-04-19T08:57:16.985Z,101910.28
2023-04-19T09:00:08.067Z,101916.88
2023-04-19T09:02:56.123Z,101915.25
2023-04-19T09:05:43.414Z,101913.81
2023-04-19T09:08:31.327Z,101924.06
2023-04-19T09:11:17.970Z,101925.63
2023-04-19T09:14:09.661Z,101905.03
2023-04-19T09:17:14.705Z,101914.59
2023-04-19T09:20:01.190Z,101905.75
2023-04-19T09:23:06.137Z,101902.25
2023-04-19T09:26:21.479Z,101908.88
2023-04-19T09:29:03.079Z,101896.13
2023-04-19T09:31:59.998Z,101895.75
2023-04-19T09:34:53.485Z,101881.41
2023-04-19T09:38:04.038Z,101886.19
2023-04-19T09:40:50.374Z,101880.69
2023-04-19T09:44:00.885Z,101871.13
2023-04-19T09:46:45.680Z,101877.84
2023-04-19T09:49:48.109Z,101883.84
2023-04-19T09:52:36.993Z,101870.00
2023-04-19T09:55:27.347Z,101879.72
2023-04-19T09:58:15.094Z,101874.59
2023-04-19T10:01:13.287Z,101883.38
2023-04-19T10:04:14.913Z,101889.97
2023-04-19T10:10:16.130Z,101890.75
2023-04-19T10:13:18.850Z,101886.56
2023-04-19T10:16:18.352Z,101871.91
2023-04-19T10:19:10.209Z,101861.66
2023-04-19T10:21:57.568Z,101868.66
2023-04-19T10:25:09.731Z,101848.72
2023-04-19T10:27:56.538Z,101862.44
2023-04-19T10:30:54.616Z,101859.06
2023-04-19T10:33:42.569Z,101837.84
2023-04-19T10:36:29.908Z,101854.44
2023-04-19T10:39:40.646Z,101844.56
2023-04-19T10:43:16.172Z,101850.31
2023-04-19T10:46:07.589Z,101844.69
2023-04-19T10:48:55.232Z,101842.13
2023-04-19T10:51:48.709Z,101835.59
2023-04-19T10:54:37.683Z,101840.75
2023-04-19T10:57:25.384Z,101838.09
2023-04-19T11:00:25.775Z,101833.78
2023-04-19T11:03:49.709Z,101834.59
2023-04-19T11:06:37.279Z,101780.03
2023-04-19T11:09:24.300Z,101827.84
2023-04-19T11:12:13.606Z,101827.84
2023-04-19T11:15:01.154Z,101830.06
2023-04-19T11:18:01.010Z,101826.91
2023-04-19T11:20:56.001Z,101812.47
2023-04-19T11:23:42.998Z,101818.03
2023-04-19T11:26:31.406Z,101805.47
2023-04-19T11:29:18.146Z,101805.09
2023-04-19T11:32:06.184Z,101805.78
2023-04-19T11:34:57.271Z,101795.53
2023-04-19T11:37:43.982Z,101801.03
2023-04-19T11:40:31.001Z,101799.97
2023-04-19T11:43:17.518Z,101796.66
2023-04-19T11:46:08.220Z,101784.59
2023-04-19T11:48:56.511Z,101787.38
2023-04-19T11:51:44.831Z,101772.28
2023-04-19T11:54:31.373Z,101769.91
2023-04-19T11:57:29.146Z,101766.75
2023-04-19T12:00:16.954Z,101749.44
2023-04-19T12:03:05.295Z,101761.50
2023-04-19T12:05:57.144Z,101720.69
2023-04-19T12:08:48.192Z,101760.78
2023-04-19T12:11:44.521Z,101744.28
2023-04-19T12:14:32.566Z,101752.72
2023-04-19T12:17:19.480Z,101746.78
2023-04-19T12:20:08.461Z,101730.28
2023-04-19T12:22:55.085Z,101723.41
2023-04-19T12:25:44.998Z,101723.53
2023-04-19T12:28:31.937Z,101721.41
2023-04-19T12:31:20.872Z,101715.81
2023-04-19T12:34:07.472Z,101708.56
2023-04-19T12:36:54.353Z,101710.41
2023-04-19T12:39:41.157Z,101723.50
2023-04-19T12:42:29.246Z,101711.88
2023-04-19T12:45:16.358Z,101700.91
2023-04-19T12:48:02.995Z,101700.97
2023-04-19T12:50:49.777Z,101701.88
2023-04-19T12:53:36.544Z,101698.81
2023-04-19T12:56:23.434Z,101711.88
2023-04-19T12:59:11.850Z,101699.91
2023-04-19T13:01:58.707Z,101692.00
2023-04-19T13:04:45.614Z,101689.75
2023-04-19T13:07:32.232Z,101685.66
2023-04-19T13:10:19.064Z,101676.72
2023-04-19T13:13:06.008Z,101685.47
2023-04-19T13:15:54.130Z,101694.75
2023-04-19T13:18:40.488Z,101686.38
2023-04-19T13:21:28.035Z,101684.59
2023-04-19T13:24:15.072Z,101678.44
2023-04-19T13:27:02.253Z,101672.88
2023-04-19T13:29:49.227Z,101666.44
2023-04-19T13:32:37.707Z,101673.44
2023-04-19T13:35:24.186Z,101668.59
2023-04-19T13:38:12.072Z,101661.13
2023-04-19T13:40:58.986Z,101663.63
2023-04-19T13:43:46.703Z,101655.28
2023-04-19T13:46:33.860Z,101650.06
2023-04-19T13:49:22.049Z,101638.06
2023-04-19T13:52:08.945Z,101649.69
2023-04-19T13:54:56.087Z,101646.59
2023-04-19T13:57:42.817Z,101583.50
2023-04-19T14:00:29.623Z,101639.91
2023-04-19T14:03:16.348Z,101646.19
2023-04-19T14:06:04.390Z,101638.78
2023-04-19T14:08:51.478Z,101631.47
2023-04-19T14:11:39.041Z,101626.09
2023-04-19T14:14:25.505Z,101629.25
2023-04-19T14:17:12.732Z,101628.63
2023-04-19T14:19:59.677Z,101628.78
2023-04-19T14:22:48.171Z,101627.06
2023-04-19T14:25:36.854Z,101637.50
2023-04-19T14:28:23.306Z,101635.91
2023-04-19T14:31:10.146Z,101636.44
2023-04-19T14:33:56.846Z,101641.34
2023-04-19T14:36:43.560Z,101641.50
2023-04-19T14:39:31.974Z,101645.78
2023-04-19T14:42:20.795Z,101650.34
2023-04-19T14:45:09.848Z,101661.13
2023-04-19T14:47:56.484Z,101677.69
2023-04-19T14:50:43.273Z,101677.66
2023-04-19T14:53:30.933Z,101685.91
2023-04-19T14:56:20.019Z,101678.94
2023-04-19T14:59:08.141Z,101678.03
2023-04-19T15:01:54.676Z,101676.13
2023-04-19T15:04:42.128Z,101672.63
2023-04-19T15:07:29.530Z,101664.88
2023-04-19T15:10:16.216Z,101654.13
2023-04-19T15:13:03.975Z,101664.22
2023-04-19T15:15:51.336Z,101660.63
2023-04-19T15:18:38.303Z,101656.56
2023-04-19T15:21:25.076Z,101653.78
2023-04-19T15:24:12.002Z,101648.53
2023-04-19T15:26:58.874Z,101642.47
2023-04-19T15:29:48.231Z,101639.00
2023-04-19T15:32:37.001Z,101634.63
2023-04-19T15:35:23.400Z,101634.28
2023-04-19T15:38:10.296Z,101619.25
2023-04-19T15:40:57.980Z,101621.09
2023-04-19T15:43:44.714Z,101611.75
2023-04-19T15:46:32.840Z,101609.25
2023-04-19T15:49:19.787Z,101602.16
2023-04-19T15:52:06.503Z,101608.94
2023-04-19T15:54:53.826Z,101604.63
2023-04-19T15:57:40.510Z,101611.53
2023-04-19T16:00:27.716Z,101600.09
2023-04-19T16:03:15.957Z,101603.25
2023-04-19T16:06:02.607Z,101597.53
2023-04-19T16:08:49.406Z,101591.31
2023-04-19T16:11:36.114Z,101594.78
2023-04-19T16:14:25.082Z,101592.00
2023-04-19T16:17:11.947Z,101577.16
2023-04-19T16:20:00.199Z,101577.25
2023-04-19T16:22:46.675Z,101578.06
2023-04-19T16:25:34.406Z,101577.00
2023-04-19T16:28:21.452Z,101574.41
2023-04-19T16:31:13.925Z,101573.56
2023-04-19T16:34:00.757Z,101581.66
2023-04-19T16:36:48.946Z,101573.44
2023-04-19T16:39:35.599Z,101578.91
2023-04-19T16:42:22.314Z,101573.69
2023-04-19T16:45:10.190Z,101580.75
2023-04-19T16:47:56.908Z,101578.06
2023-04-19T16:50:43.608Z,101576.25
2023-04-19T16:53:32.096Z,101578.81
2023-04-19T16:56:19.473Z,101585.38
2023-04-19T16:59:06.452Z,101584.44
2023-04-19T17:01:57.890Z,101592.34
2023-04-19T17:04:46.429Z,101586.75
2023-04-19T17:07:33.582Z,101580.19
2023-04-19T17:10:21.883Z,101582.06
2023-04-19T17:13:09.058Z,101587.63
2023-04-19T17:15:55.527Z,101586.19
2023-04-19T17:18:42.354Z,101583.53
2023-04-19T17:21:29.160Z,101593.97
2023-04-19T17:24:16.329Z,101587.78
2023-04-19T17:27:04.585Z,101596.78
2023-04-19T17:29:51.445Z,101585.25
2023-04-19T17:32:38.196Z,101595.78
2023-04-19T17:35:26.107Z,101586.19
2023-04-19T17:38:12.827Z,101588.78
2023-04-19T17:40:59.785Z,101592.97
2023-04-19T17:43:48.768Z,101592.03
2023-04-19T17:46:35.339Z,101586.94
2023-04-19T17:49:22.218Z,101587.94
2023-04-19T17:52:09.078Z,101589.56
2023-04-19T17:54:56.270Z,101588.94
2023-04-19T17:57:42.907Z,101591.22
2023-04-19T18:00:31.035Z,101589.88
2023-04-19T18:03:18.645Z,101598.59
2023-04-19T18:06:06.843Z,101605.47
2023-04-19T18:08:55.310Z,101608.22
2023-04-19T18:11:43.581Z,101611.69
2023-04-19T18:14:31.479Z,101606.09
2023-04-19T18:17:20.443Z,101606.09
2023-04-19T18:20:09.190Z,101607.09
2023-04-19T18:23:00.230Z,101625.88
2023-04-19T18:25:54.009Z,101623.81
2023-04-19T18:28:41.095Z,101619.63
2023-04-19T18:31:28.464Z,101616.75
2023-04-19T18:34:17.409Z,101614.31
2023-04-19T18:37:05.436Z,101622.16
2023-04-19T18:39:52.097Z,101626.50
2023-04-19T18:42:39.160Z,101632.75
2023-04-19T18:45:26.343Z,101628.41
2023-04-19T18:48:15.238Z,101642.25
2023-04-19T18:51:05.646Z,101621.13
2023-04-19T18:53:52.290Z,101637.09
2023-04-19T18:59:28.373Z,101624.72
2023-04-19T19:02:15.858Z,101639.59
2023-04-19T19:05:03.453Z,101641.13
2023-04-19T19:07:52.404Z,101634.16
2023-04-19T19:11:08.760Z,101632.16
2023-04-19T19:13:46.067Z,101649.84
2023-04-19T19:16:32.479Z,101642.91
2023-04-19T19:19:20.756Z,101643.03
2023-04-19T19:22:22.395Z,101651.97
2023-04-19T19:25:14.006Z,101657.13
2023-04-19T19:28:06.488Z,101644.72
2023-04-19T19:30:54.910Z,101647.47
2023-04-19T19:33:41.566Z,101637.06
2023-04-19T19:36:28.761Z,101643.94
2023-04-19T19:39:15.681Z,101637.66
2023-04-19T19:42:06.340Z,101646.56
2023-04-19T19:44:55.418Z,101655.31
2023-04-19T19:47:45.479Z,101656.53
2023-04-19T19:53:22.211Z,101626.72
2023-04-19T19:56:18.251Z,101644.97
2023-04-19T19:59:09.607Z,101667.16
2023-04-19T20:01:56.485Z,101661.56
2023-04-19T20:04:43.361Z,101673.31
2023-04-19T20:07:58.308Z,101676.66
2023-04-19T20:10:36.738Z,101673.16
2023-04-19T20:13:23.409Z,101672.13
2023-04-19T20:16:11.412Z,101669.56
2023-04-19T20:18:59.576Z,101673.00
2023-04-19T20:21:47.069Z,101668.78
2023-04-19T20:24:35.060Z,101663.69
2023-04-19T20:27:21.843Z,101670.03
2023-04-19T20:30:09.908Z,101658.53
2023-04-19T20:32:58.164Z,101673.34
2023-04-19T20:35:44.434Z,101665.50
2023-04-19T20:38:31.991Z,101663.78
2023-04-19T20:41:19.497Z,101664.41
2023-04-19T20:44:06.382Z,101667.09
2023-04-19T20:46:52.760Z,101672.31
2023-04-19T20:49:41.201Z,101662.06
2023-04-19T20:52:28.000Z,101661.19
2023-04-19T20:55:15.416Z,101662.78
2023-04-19T20:58:02.609Z,101667.31
2023-04-19T21:00:50.153Z,101677.72
2023-04-19T21:03:37.297Z,101671.66
2023-04-19T21:06:25.167Z,101672.31
2023-04-19T21:09:12.053Z,101672.34
2023-04-19T21:11:58.615Z,101677.75
2023-04-19T21:14:49.266Z,101672.28
2023-04-19T21:17:36.725Z,101674.16
2023-04-19T21:20:23.771Z,101673.44
2023-04-19T21:23:12.425Z,101673.47
2023-04-19T21:25:58.939Z,101676.84
2023-04-19T21:28:45.754Z,101670.69
2023-04-19T21:31:32.511Z,101677.59
2023-04-19T21:34:19.285Z,101672.53
2023-04-19T21:37:06.349Z,101681.31
2023-04-19T21:39:54.524Z,101673.44
2023-04-19T21:42:41.342Z,101669.97
2023-04-19T21:45:28.172Z,101676.00
2023-04-19T21:48:14.964Z,101674.28
2023-04-19T21:51:02.222Z,101655.91
2023-04-19T21:53:49.011Z,101669.63
2023-04-19T21:56:38.811Z,101667.91
2023-04-19T21:59:25.758Z,101671.41
2023-04-19T22:02:12.547Z,101666.81
2023-04-19T22:05:00.350Z,101667.84
2023-04-19T22:07:47.551Z,101668.84
2023-04-19T22:10:34.922Z,101665.97
2023-04-19T22:13:23.343Z,101678.22
2023-04-19T22:16:10.118Z,101680.03
2023-04-19T22:18:57.899Z,101672.06
2023-04-19T22:21:44.800Z,101673.06
2023-04-19T22:24:31.525Z,101663.34
2023-04-19T22:27:18.445Z,101661.59
2023-04-19T22:30:08.456Z,101656.31
2023-04-19T22:32:55.485Z,101669.25
2023-04-19T22:35:42.036Z,101665.13
2023-04-19T22:38:29.008Z,101675.72
2023-04-19T22:41:16.796Z,101672.28
2023-04-19T22:44:04.568Z,101669.56
2023-04-19T22:46:52.694Z,101660.69
2023-04-19T22:49:42.990Z,101658.00
2023-04-19T22:52:29.882Z,101647.56
2023-04-19T22:55:16.642Z,101650.09
2023-04-19T22:58:04.885Z,101654.78
2023-04-19T23:00:51.707Z,101655.38
2023-04-19T23:03:49.061Z,101625.72
2023-04-19T23:06:36.981Z,101657.16
2023-04-19T23:09:25.300Z,101655.41
2023-04-19T23:12:16.409Z,101648.38
2023-04-19T23:15:04.031Z,101640.38
2023-04-19T23:17:50.739Z,101649.34
2023-04-19T23:20:38.968Z,101655.38
2023-04-19T23:23:27.877Z,101644.84
2023-04-19T23:26:14.234Z,101649.16
2023-04-19T23:29:00.942Z,101641.28
2023-04-19T23:31:47.625Z,101639.50
2023-04-19T23:34:34.364Z,101646.69
2023-04-19T23:37:22.484Z,101650.91
2023-04-19T23:40:10.535Z,101644.88
2023-04-19T23:42:57.369Z,101639.50
2023-04-19T23:45:44.062Z,101631.69
2023-04-19T23:48:30.947Z,101617.47
2023-04-19T23:51:17.943Z,101621.56
2023-04-19T23:54:06.267Z,101623.94
2023-04-19T23:56:53.484Z,101596.69
2023-04-19T23:59:40.251Z,101615.19
